sensor_id;sensor_type;location;lat;lon;timestamp;temperature;humidity
15296;DHT22;7749;49.964;7.890;2022-12-18T00:01:30;-3.90;99.90
15296;DHT22;7749;49.964;7.890;2022-12-18T00:04:00;-4.00;99.90
15296;DHT22;7749;49.964;7.890;2022-12-18T00:06:29;-3.90;99.90
15296;DHT22;7749;49.964;7.890;2022-12-18T00:08:57;-3.90;99.90
15296;DHT22;7749;49.964;7.890;2022-12-18T00:11:27;-3.90;99.90
15296;DHT22;7749;49.964;7.890;2022-12-18T00:13:57;-3.90;99.90
15296;DHT22;7749;49.964;7.890;2022-12-18T00:16:26;-3.90;99.90
15296;DHT22;7749;49.964;7.890;2022-12-18T00:18:56;-4.00;99.90
15296;DHT22;7749;49.964;7.890;2022-12-18T00:21:25;-4.00;99.90
15296;DHT22;7749;49.964;7.890;2022-12-18T00:23:53;-4.00;99.90
15296;DHT22;7749;49.964;7.890;2022-12-18T00:26:23;-4.00;99.90
15296;DHT22;7749;49.964;7.890;2022-12-18T00:28:52;-4.00;99.90
15296;DHT22;7749;49.964;7.890;2022-12-18T00:31:22;-4.00;99.90
15296;DHT22;7749;49.964;7.890;2022-12-18T00:33:49;-4.00;99.90
15296;DHT22;7749;49.964;7.890;2022-12-18T00:36:27;-4.00;99.90
15296;DHT22;7749;49.964;7.890;2022-12-18T00:38:59;-4.00;99.90
15296;DHT22;7749;49.964;7.890;2022-12-18T00:41:27;-4.00;99.90
15296;DHT22;7749;49.964;7.890;2022-12-18T00:44:17;-4.00;99.90
15296;DHT22;7749;49.964;7.890;2022-12-18T00:46:46;-4.00;99.90
15296;DHT22;7749;49.964;7.890;2022-12-18T00:49:16;-4.00;99.90
15296;DHT22;7749;49.964;7.890;2022-12-18T00:51:44;-4.00;99.90
15296;DHT22;7749;49.964;7.890;2022-12-18T00:54:12;-4.00;99.90
15296;DHT22;7749;49.964;7.890;2022-12-18T00:56:40;-4.00;99.90
15296;DHT22;7749;49.964;7.890;2022-12-18T00:59:17;-4.10;99.90
15296;DHT22;7749;49.964;7.890;2022-12-18T01:01:48;-4.00;99.90
15296;DHT22;7749;49.964;7.890;2022-12-18T01:04:16;-4.00;99.90
15296;DHT22;7749;49.964;7.890;2022-12-18T01:06:43;-4.00;99.90
15296;DHT22;7749;49.964;7.890;2022-12-18T01:09:11;-4.00;99.90
15296;DHT22;7749;49.964;7.890;2022-12-18T01:11:39;-4.00;99.90
15296;DHT22;7749;49.964;7.890;2022-12-18T01:14:09;-4.00;99.90
15296;DHT22;7749;49.964;7.890;2022-12-18T01:16:37;-4.10;99.90
15296;DHT22;7749;49.964;7.890;2022-12-18T01:19:05;-4.10;99.90
15296;DHT22;7749;49.964;7.890;2022-12-18T01:21:33;-4.10;99.90
15296;DHT22;7749;49.964;7.890;2022-12-18T01:24:01;-4.10;99.90
15296;DHT22;7749;49.964;7.890;2022-12-18T01:26:28;-4.10;99.90
15296;DHT22;7749;49.964;7.890;2022-12-18T01:28:57;-4.10;99.90
15296;DHT22;7749;49.964;7.890;2022-12-18T01:31:30;-4.10;99.90
15296;DHT22;7749;49.964;7.890;2022-12-18T01:34:00;-4.20;99.90
15296;DHT22;7749;49.964;7.890;2022-12-18T01:36:31;-4.20;99.90
15296;DHT22;7749;49.964;7.890;2022-12-18T01:39:00;-4.10;99.90
15296;DHT22;7749;49.964;7.890;2022-12-18T01:41:30;-4.20;99.90
15296;DHT22;7749;49.964;7.890;2022-12-18T01:47:47;-4.20;99.90
15296;DHT22;7749;49.964;7.890;2022-12-18T01:52:50;-4.10;99.90
15296;DHT22;7749;49.964;7.890;2022-12-18T01:55:23;-4.10;99.90
15296;DHT22;7749;49.964;7.890;2022-12-18T01:57:57;-4.20;99.90
15296;DHT22;7749;49.964;7.890;2022-12-18T02:00:26;-4.20;99.90
15296;DHT22;7749;49.964;7.890;2022-12-18T02:02:54;-4.20;99.90
15296;DHT22;7749;49.964;7.890;2022-12-18T02:11:47;-4.20;99.90
15296;DHT22;7749;49.964;7.890;2022-12-18T02:14:33;-4.10;99.90
15296;DHT22;7749;49.964;7.890;2022-12-18T02:17:07;-4.10;99.90
15296;DHT22;7749;49.964;7.890;2022-12-18T02:22:43;-4.20;99.90
15296;DHT22;7749;49.964;7.890;2022-12-18T02:27:56;-4.20;99.90
15296;DHT22;7749;49.964;7.890;2022-12-18T02:30:30;-4.30;99.90
15296;DHT22;7749;49.964;7.890;2022-12-18T02:33:00;-4.30;99.90
15296;DHT22;7749;49.964;7.890;2022-12-18T02:35:30;-4.40;99.90
15296;DHT22;7749;49.964;7.890;2022-12-18T02:37:58;-4.50;99.90
15296;DHT22;7749;49.964;7.890;2022-12-18T02:40:27;-4.40;99.90
15296;DHT22;7749;49.964;7.890;2022-12-18T02:43:01;-4.40;99.90
15296;DHT22;7749;49.964;7.890;2022-12-18T02:45:29;-4.40;99.90
15296;DHT22;7749;49.964;7.890;2022-12-18T02:47:57;-4.40;99.90
15296;DHT22;7749;49.964;7.890;2022-12-18T02:50:37;-4.40;99.90
15296;DHT22;7749;49.964;7.890;2022-12-18T02:53:33;-4.40;99.90
15296;DHT22;7749;49.964;7.890;2022-12-18T02:56:21;-4.40;99.90
15296;DHT22;7749;49.964;7.890;2022-12-18T02:59:21;-4.40;99.90
15296;DHT22;7749;49.964;7.890;2022-12-18T03:04:25;-4.40;99.90
15296;DHT22;7749;49.964;7.890;2022-12-18T03:07:03;-4.40;99.90
15296;DHT22;7749;49.964;7.890;2022-12-18T03:09:38;-4.40;99.90
15296;DHT22;7749;49.964;7.890;2022-12-18T03:15:14;-4.50;99.90
15296;DHT22;7749;49.964;7.890;2022-12-18T03:17:54;-4.60;99.90
15296;DHT22;7749;49.964;7.890;2022-12-18T03:20:32;-4.60;99.90
15296;DHT22;7749;49.964;7.890;2022-12-18T03:23:09;-4.70;99.90
15296;DHT22;7749;49.964;7.890;2022-12-18T03:25:41;-4.70;99.90
15296;DHT22;7749;49.964;7.890;2022-12-18T03:28:13;-4.60;99.90
15296;DHT22;7749;49.964;7.890;2022-12-18T03:30:44;-4.70;99.90
15296;DHT22;7749;49.964;7.890;2022-12-18T03:33:19;-4.60;99.90
15296;DHT22;7749;49.964;7.890;2022-12-18T03:35:51;-4.60;99.90
15296;DHT22;7749;49.964;7.890;2022-12-18T03:38:19;-4.50;99.90
15296;DHT22;7749;49.964;7.890;2022-12-18T03:40:59;-4.50;99.90
15296;DHT22;7749;49.964;7.890;2022-12-18T03:46:27;-4.50;99.90
15296;DHT22;7749;49.964;7.890;2022-12-18T03:49:09;-4.50;99.90
15296;DHT22;7749;49.964;7.890;2022-12-18T03:54:28;-4.60;99.90
15296;DHT22;7749;49.964;7.890;2022-12-18T03:57:18;-4.60;99.90
15296;DHT22;7749;49.964;7.890;2022-12-18T03:59:50;-4.60;99.90
15296;DHT22;7749;49.964;7.890;2022-12-18T04:02:21;-4.60;99.90
15296;DHT22;7749;49.964;7.890;2022-12-18T04:04:52;-4.70;99.90
15296;DHT22;7749;49.964;7.890;2022-12-18T04:07:21;-4.70;99.90
15296;DHT22;7749;49.964;7.890;2022-12-18T04:09:55;-4.70;99.90
15296;DHT22;7749;49.964;7.890;2022-12-18T04:12:28;-4.80;99.90
15296;DHT22;7749;49.964;7.890;2022-12-18T04:14:55;-4.80;99.90
15296;DHT22;7749;49.964;7.890;2022-12-18T04:17:23;-4.80;99.90
15296;DHT22;7749;49.964;7.890;2022-12-18T04:19:51;-4.80;99.90
15296;DHT22;7749;49.964;7.890;2022-12-18T04:22:18;-4.80;99.90
15296;DHT22;7749;49.964;7.890;2022-12-18T04:24:46;-4.80;99.90
15296;DHT22;7749;49.964;7.890;2022-12-18T04:27:14;-4.90;99.90
15296;DHT22;7749;49.964;7.890;2022-12-18T04:29:42;-4.90;99.90
15296;DHT22;7749;49.964;7.890;2022-12-18T04:32:09;-4.90;99.90
15296;DHT22;7749;49.964;7.890;2022-12-18T04:34:37;-4.90;99.90
15296;DHT22;7749;49.964;7.890;2022-12-18T04:37:05;-4.90;99.90
15296;DHT22;7749;49.964;7.890;2022-12-18T04:39:32;-4.80;99.90
15296;DHT22;7749;49.964;7.890;2022-12-18T04:42:03;-4.80;99.90
15296;DHT22;7749;49.964;7.890;2022-12-18T04:44:30;-4.90;99.90
15296;DHT22;7749;49.964;7.890;2022-12-18T04:47:01;-4.90;99.90
15296;DHT22;7749;49.964;7.890;2022-12-18T04:49:29;-4.90;99.90
15296;DHT22;7749;49.964;7.890;2022-12-18T04:51:56;-4.90;99.90
15296;DHT22;7749;49.964;7.890;2022-12-18T04:54:24;-4.90;99.90
15296;DHT22;7749;49.964;7.890;2022-12-18T04:56:51;-5.10;99.90
15296;DHT22;7749;49.964;7.890;2022-12-18T04:59:20;-5.10;99.90
15296;DHT22;7749;49.964;7.890;2022-12-18T05:01:47;-5.10;99.90
15296;DHT22;7749;49.964;7.890;2022-12-18T05:04:15;-5.20;99.90
15296;DHT22;7749;49.964;7.890;2022-12-18T05:06:44;-5.30;99.90
15296;DHT22;7749;49.964;7.890;2022-12-18T05:09:12;-5.40;99.90
15296;DHT22;7749;49.964;7.890;2022-12-18T05:11:39;-5.40;99.90
15296;DHT22;7749;49.964;7.890;2022-12-18T05:14:07;-5.40;99.90
15296;DHT22;7749;49.964;7.890;2022-12-18T05:16:34;-5.50;99.90
15296;DHT22;7749;49.964;7.890;2022-12-18T05:19:02;-5.60;99.90
15296;DHT22;7749;49.964;7.890;2022-12-18T05:21:30;-5.70;99.90
15296;DHT22;7749;49.964;7.890;2022-12-18T05:23:58;-5.70;99.90
15296;DHT22;7749;49.964;7.890;2022-12-18T05:26:25;-5.80;99.90
15296;DHT22;7749;49.964;7.890;2022-12-18T05:28:56;-5.80;99.90
15296;DHT22;7749;49.964;7.890;2022-12-18T05:31:24;-5.80;99.90
15296;DHT22;7749;49.964;7.890;2022-12-18T05:33:51;-5.90;99.90
15296;DHT22;7749;49.964;7.890;2022-12-18T05:36:19;-5.90;99.90
15296;DHT22;7749;49.964;7.890;2022-12-18T05:38:48;-6.00;99.90
15296;DHT22;7749;49.964;7.890;2022-12-18T05:41:16;-6.00;99.90
15296;DHT22;7749;49.964;7.890;2022-12-18T05:43:43;-6.00;99.90
15296;DHT22;7749;49.964;7.890;2022-12-18T05:46:14;-6.00;99.90
15296;DHT22;7749;49.964;7.890;2022-12-18T05:48:42;-6.00;99.90
15296;DHT22;7749;49.964;7.890;2022-12-18T05:51:14;-6.10;99.90
15296;DHT22;7749;49.964;7.890;2022-12-18T05:53:43;-6.10;99.90
15296;DHT22;7749;49.964;7.890;2022-12-18T05:56:16;-6.10;99.90
15296;DHT22;7749;49.964;7.890;2022-12-18T05:58:44;-6.10;99.90
15296;DHT22;7749;49.964;7.890;2022-12-18T06:01:17;-6.10;99.90
15296;DHT22;7749;49.964;7.890;2022-12-18T06:03:45;-6.10;99.90
15296;DHT22;7749;49.964;7.890;2022-12-18T06:06:18;-6.20;99.90
15296;DHT22;7749;49.964;7.890;2022-12-18T06:08:46;-6.20;99.90
15296;DHT22;7749;49.964;7.890;2022-12-18T06:11:17;-6.20;99.90
15296;DHT22;7749;49.964;7.890;2022-12-18T06:13:46;-6.20;99.90
15296;DHT22;7749;49.964;7.890;2022-12-18T06:16:13;-6.20;99.90
15296;DHT22;7749;49.964;7.890;2022-12-18T06:18:41;-6.20;99.90
15296;DHT22;7749;49.964;7.890;2022-12-18T06:21:09;-6.20;99.90
15296;DHT22;7749;49.964;7.890;2022-12-18T06:23:37;-6.20;99.90
15296;DHT22;7749;49.964;7.890;2022-12-18T06:26:10;-6.30;99.90
15296;DHT22;7749;49.964;7.890;2022-12-18T06:28:39;-6.30;99.90
15296;DHT22;7749;49.964;7.890;2022-12-18T06:31:07;-6.30;99.90
15296;DHT22;7749;49.964;7.890;2022-12-18T06:33:35;-6.40;99.90
15296;DHT22;7749;49.964;7.890;2022-12-18T06:36:06;-6.40;99.90
15296;DHT22;7749;49.964;7.890;2022-12-18T06:38:39;-6.40;99.90
15296;DHT22;7749;49.964;7.890;2022-12-18T06:41:09;-6.40;99.90
15296;DHT22;7749;49.964;7.890;2022-12-18T06:43:37;-6.40;99.90
15296;DHT22;7749;49.964;7.890;2022-12-18T06:46:05;-6.40;99.90
15296;DHT22;7749;49.964;7.890;2022-12-18T06:48:34;-6.50;99.90
15296;DHT22;7749;49.964;7.890;2022-12-18T06:51:03;-6.50;99.90
15296;DHT22;7749;49.964;7.890;2022-12-18T06:53:31;-6.50;99.90
15296;DHT22;7749;49.964;7.890;2022-12-18T06:56:06;-6.60;99.90
15296;DHT22;7749;49.964;7.890;2022-12-18T06:58:40;-6.70;99.90
15296;DHT22;7749;49.964;7.890;2022-12-18T07:01:10;-6.60;99.90
15296;DHT22;7749;49.964;7.890;2022-12-18T07:03:39;-6.70;99.90
15296;DHT22;7749;49.964;7.890;2022-12-18T07:06:16;-6.70;99.90
15296;DHT22;7749;49.964;7.890;2022-12-18T07:08:45;-6.80;99.90
15296;DHT22;7749;49.964;7.890;2022-12-18T07:11:13;-6.80;99.90
15296;DHT22;7749;49.964;7.890;2022-12-18T07:13:41;-6.80;99.90
15296;DHT22;7749;49.964;7.890;2022-12-18T07:16:14;-6.80;99.90
15296;DHT22;7749;49.964;7.890;2022-12-18T07:18:50;-6.90;99.90
15296;DHT22;7749;49.964;7.890;2022-12-18T07:21:19;-7.00;99.90
15296;DHT22;7749;49.964;7.890;2022-12-18T07:23:46;-7.00;99.90
15296;DHT22;7749;49.964;7.890;2022-12-18T07:26:18;-7.00;99.90
15296;DHT22;7749;49.964;7.890;2022-12-18T07:28:47;-7.00;99.90
15296;DHT22;7749;49.964;7.890;2022-12-18T07:31:17;-7.00;99.90
15296;DHT22;7749;49.964;7.890;2022-12-18T07:33:45;-7.10;99.90
15296;DHT22;7749;49.964;7.890;2022-12-18T07:36:13;-7.10;99.90
15296;DHT22;7749;49.964;7.890;2022-12-18T07:38:41;-7.20;99.90
15296;DHT22;7749;49.964;7.890;2022-12-18T07:41:11;-7.20;99.90
15296;DHT22;7749;49.964;7.890;2022-12-18T07:43:40;-7.10;99.90
15296;DHT22;7749;49.964;7.890;2022-12-18T07:46:09;-7.10;99.90
15296;DHT22;7749;49.964;7.890;2022-12-18T07:48:41;-7.10;99.90
15296;DHT22;7749;49.964;7.890;2022-12-18T07:51:13;-7.10;99.90
15296;DHT22;7749;49.964;7.890;2022-12-18T07:53:41;-7.10;99.90
15296;DHT22;7749;49.964;7.890;2022-12-18T07:56:11;-7.10;99.90
15296;DHT22;7749;49.964;7.890;2022-12-18T07:58:58;-7.00;99.90
15296;DHT22;7749;49.964;7.890;2022-12-18T08:01:26;-7.00;99.90
15296;DHT22;7749;49.964;7.890;2022-12-18T08:03:54;-7.00;99.90
15296;DHT22;7749;49.964;7.890;2022-12-18T08:06:22;-7.00;99.90
15296;DHT22;7749;49.964;7.890;2022-12-18T08:08:52;-7.00;99.90
15296;DHT22;7749;49.964;7.890;2022-12-18T08:11:20;-7.00;99.90
15296;DHT22;7749;49.964;7.890;2022-12-18T08:13:48;-7.00;99.90
15296;DHT22;7749;49.964;7.890;2022-12-18T08:16:16;-6.90;99.90
15296;DHT22;7749;49.964;7.890;2022-12-18T08:18:44;-6.90;99.90
15296;DHT22;7749;49.964;7.890;2022-12-18T08:21:16;-6.80;99.90
15296;DHT22;7749;49.964;7.890;2022-12-18T08:23:47;-6.80;99.90
15296;DHT22;7749;49.964;7.890;2022-12-18T08:26:15;-6.70;99.90
15296;DHT22;7749;49.964;7.890;2022-12-18T08:28:45;-6.50;99.90
15296;DHT22;7749;49.964;7.890;2022-12-18T08:31:14;-6.50;99.90
15296;DHT22;7749;49.964;7.890;2022-12-18T08:33:42;-6.40;99.90
15296;DHT22;7749;49.964;7.890;2022-12-18T08:36:10;-6.20;99.90
15296;DHT22;7749;49.964;7.890;2022-12-18T08:38:38;-6.10;99.90
15296;DHT22;7749;49.964;7.890;2022-12-18T08:41:10;-5.90;99.90
15296;DHT22;7749;49.964;7.890;2022-12-18T08:43:39;-5.70;99.90
15296;DHT22;7749;49.964;7.890;2022-12-18T08:46:33;-5.50;99.90
15296;DHT22;7749;49.964;7.890;2022-12-18T08:49:07;-5.30;99.90
15296;DHT22;7749;49.964;7.890;2022-12-18T08:51:43;-5.00;99.90
15296;DHT22;7749;49.964;7.890;2022-12-18T08:54:12;-4.90;99.90
15296;DHT22;7749;49.964;7.890;2022-12-18T08:56:40;-4.60;99.90
15296;DHT22;7749;49.964;7.890;2022-12-18T08:59:08;-4.50;99.90
15296;DHT22;7749;49.964;7.890;2022-12-18T09:01:46;-4.50;99.90
15296;DHT22;7749;49.964;7.890;2022-12-18T09:04:14;-4.40;99.90
15296;DHT22;7749;49.964;7.890;2022-12-18T09:06:41;-4.40;99.90
15296;DHT22;7749;49.964;7.890;2022-12-18T09:09:09;-4.40;99.90
15296;DHT22;7749;49.964;7.890;2022-12-18T09:11:37;-4.40;99.90
15296;DHT22;7749;49.964;7.890;2022-12-18T09:14:05;-4.40;99.90
15296;DHT22;7749;49.964;7.890;2022-12-18T09:16:33;-4.60;99.90
15296;DHT22;7749;49.964;7.890;2022-12-18T09:19:04;-4.70;99.90
15296;DHT22;7749;49.964;7.890;2022-12-18T09:21:34;-4.70;99.90
15296;DHT22;7749;49.964;7.890;2022-12-18T09:24:04;-4.60;99.90
15296;DHT22;7749;49.964;7.890;2022-12-18T09:26:35;-4.60;99.90
15296;DHT22;7749;49.964;7.890;2022-12-18T09:29:03;-4.60;99.90
15296;DHT22;7749;49.964;7.890;2022-12-18T09:31:31;-4.40;99.90
15296;DHT22;7749;49.964;7.890;2022-12-18T09:33:59;-4.30;99.90
15296;DHT22;7749;49.964;7.890;2022-12-18T09:36:27;-4.20;99.90
15296;DHT22;7749;49.964;7.890;2022-12-18T09:38:54;-4.10;99.90
15296;DHT22;7749;49.964;7.890;2022-12-18T09:44:18;-3.90;89.80
15296;DHT22;7749;49.964;7.890;2022-12-18T09:46:59;-4.10;81.00
15296;DHT22;7749;49.964;7.890;2022-12-18T09:49:30;-4.10;95.40
15296;DHT22;7749;49.964;7.890;2022-12-18T09:52:04;-4.00;98.10
15296;DHT22;7749;49.964;7.890;2022-12-18T09:54:39;-3.80;99.00
15296;DHT22;7749;49.964;7.890;2022-12-18T09:57:18;-3.60;92.10
15296;DHT22;7749;49.964;7.890;2022-12-18T09:59:55;-3.40;83.40
15296;DHT22;7749;49.964;7.890;2022-12-18T10:02:25;-3.40;70.60
15296;DHT22;7749;49.964;7.890;2022-12-18T10:05:12;-3.30;54.00
15296;DHT22;7749;49.964;7.890;2022-12-18T10:08:02;-3.10;31.60
15296;DHT22;7749;49.964;7.890;2022-12-18T10:13:37;-2.80;19.50
15296;DHT22;7749;49.964;7.890;2022-12-18T10:16:16;-2.70;11.20
15296;DHT22;7749;49.964;7.890;2022-12-18T10:27:26;-2.40;1.00
15296;DHT22;7749;49.964;7.890;2022-12-18T10:29:54;-2.50;1.00
15296;DHT22;7749;49.964;7.890;2022-12-18T10:32:26;-2.20;1.00
15296;DHT22;7749;49.964;7.890;2022-12-18T10:34:56;-1.90;1.00
15296;DHT22;7749;49.964;7.890;2022-12-18T10:37:29;-1.50;1.00
15296;DHT22;7749;49.964;7.890;2022-12-18T10:42:36;-0.70;1.00
15296;DHT22;7749;49.964;7.890;2022-12-18T10:45:14;-0.40;1.00
15296;DHT22;7749;49.964;7.890;2022-12-18T10:47:49;-0.40;1.00
15296;DHT22;7749;49.964;7.890;2022-12-18T10:53:20;-0.70;1.00
15296;DHT22;7749;49.964;7.890;2022-12-18T10:55:49;-1.00;1.00
15296;DHT22;7749;49.964;7.890;2022-12-18T10:58:32;-1.00;1.00
15296;DHT22;7749;49.964;7.890;2022-12-18T11:06:28;-1.40;1.00
15296;DHT22;7749;49.964;7.890;2022-12-18T11:09:19;-1.90;1.00
15296;DHT22;7749;49.964;7.890;2022-12-18T11:11:52;-2.10;1.00
15296;DHT22;7749;49.964;7.890;2022-12-18T11:16:58;-2.40;1.00
15296;DHT22;7749;49.964;7.890;2022-12-18T11:19:52;-2.60;1.00
15296;DHT22;7749;49.964;7.890;2022-12-18T11:22:24;-2.80;1.00
15296;DHT22;7749;49.964;7.890;2022-12-18T11:24:59;-2.90;1.00
15296;DHT22;7749;49.964;7.890;2022-12-18T11:27:49;-2.80;1.00
15296;DHT22;7749;49.964;7.890;2022-12-18T11:30:22;-2.70;1.00
15296;DHT22;7749;49.964;7.890;2022-12-18T11:32:57;-2.60;1.00
15296;DHT22;7749;49.964;7.890;2022-12-18T11:44:25;-2.50;1.00
15296;DHT22;7749;49.964;7.890;2022-12-18T11:47:00;-2.30;1.00
15296;DHT22;7749;49.964;7.890;2022-12-18T11:49:33;-2.30;1.00
15296;DHT22;7749;49.964;7.890;2022-12-18T11:55:01;-2.00;1.00
15296;DHT22;7749;49.964;7.890;2022-12-18T12:00:21;-2.00;1.00
15296;DHT22;7749;49.964;7.890;2022-12-18T12:03:19;-2.10;1.00
15296;DHT22;7749;49.964;7.890;2022-12-18T12:08:43;-1.70;1.00
15296;DHT22;7749;49.964;7.890;2022-12-18T12:14:28;-1.40;1.00
15296;DHT22;7749;49.964;7.890;2022-12-18T12:19:54;-1.40;1.00
15296;DHT22;7749;49.964;7.890;2022-12-18T12:22:37;-1.10;1.00
15296;DHT22;7749;49.964;7.890;2022-12-18T12:28:03;-0.90;1.00
15296;DHT22;7749;49.964;7.890;2022-12-18T12:33:28;-0.80;1.00
15296;DHT22;7749;49.964;7.890;2022-12-18T12:38:42;-0.90;1.00
15296;DHT22;7749;49.964;7.890;2022-12-18T12:41:22;-1.10;1.00
15296;DHT22;7749;49.964;7.890;2022-12-18T12:44:16;-1.20;1.00
15296;DHT22;7749;49.964;7.890;2022-12-18T12:46:50;-1.30;1.00
15296;DHT22;7749;49.964;7.890;2022-12-18T12:49:26;-1.30;1.00
15296;DHT22;7749;49.964;7.890;2022-12-18T12:52:25;-1.30;1.00
15296;DHT22;7749;49.964;7.890;2022-12-18T12:54:55;-1.30;1.00
15296;DHT22;7749;49.964;7.890;2022-12-18T12:57:36;-1.40;1.00
15296;DHT22;7749;49.964;7.890;2022-12-18T13:00:13;-1.50;1.00
15296;DHT22;7749;49.964;7.890;2022-12-18T13:05:50;-1.80;1.00
15296;DHT22;7749;49.964;7.890;2022-12-18T13:08:25;-1.80;1.00
15296;DHT22;7749;49.964;7.890;2022-12-18T13:10:58;-1.70;1.00
15296;DHT22;7749;49.964;7.890;2022-12-18T13:16:24;-1.80;1.00
15296;DHT22;7749;49.964;7.890;2022-12-18T13:18:54;-1.80;2.40
15296;DHT22;7749;49.964;7.890;2022-12-18T13:21:30;-1.80;1.00
15296;DHT22;7749;49.964;7.890;2022-12-18T13:24:25;-1.70;1.00
15296;DHT22;7749;49.964;7.890;2022-12-18T13:26:53;-1.80;1.00
15296;DHT22;7749;49.964;7.890;2022-12-18T13:29:44;-1.80;10.50
15296;DHT22;7749;49.964;7.890;2022-12-18T13:32:24;-1.80;18.10
15296;DHT22;7749;49.964;7.890;2022-12-18T13:37:54;-1.90;15.90
15296;DHT22;7749;49.964;7.890;2022-12-18T13:43:22;-2.00;25.20
15296;DHT22;7749;49.964;7.890;2022-12-18T13:46:03;-2.10;32.20
15296;DHT22;7749;49.964;7.890;2022-12-18T13:48:36;-2.20;39.90
15296;DHT22;7749;49.964;7.890;2022-12-18T13:51:07;-2.30;50.70
15296;DHT22;7749;49.964;7.890;2022-12-18T13:53:46;-2.30;60.70
15296;DHT22;7749;49.964;7.890;2022-12-18T13:56:26;-2.30;62.40
15296;DHT22;7749;49.964;7.890;2022-12-18T13:59:19;-2.20;68.20
15296;DHT22;7749;49.964;7.890;2022-12-18T14:01:54;-2.30;77.60
15296;DHT22;7749;49.964;7.890;2022-12-18T14:04:33;-2.30;90.00
15296;DHT22;7749;49.964;7.890;2022-12-18T14:07:07;-2.20;90.00
15296;DHT22;7749;49.964;7.890;2022-12-18T14:09:42;-2.20;80.10
15296;DHT22;7749;49.964;7.890;2022-12-18T14:12:17;-2.20;82.70
15296;DHT22;7749;49.964;7.890;2022-12-18T14:15:06;-2.20;89.70
15296;DHT22;7749;49.964;7.890;2022-12-18T14:17:42;-2.20;86.50
15296;DHT22;7749;49.964;7.890;2022-12-18T14:20:17;-2.30;88.90
15296;DHT22;7749;49.964;7.890;2022-12-18T14:22:46;-2.30;91.90
15296;DHT22;7749;49.964;7.890;2022-12-18T14:25:30;-2.40;91.80
15296;DHT22;7749;49.964;7.890;2022-12-18T14:28:12;-2.40;92.70
15296;DHT22;7749;49.964;7.890;2022-12-18T14:30:42;-2.50;95.30
15296;DHT22;7749;49.964;7.890;2022-12-18T14:33:22;-2.50;98.00
15296;DHT22;7749;49.964;7.890;2022-12-18T14:35:55;-2.50;96.90
15296;DHT22;7749;49.964;7.890;2022-12-18T14:41:03;-2.60;98.60
15296;DHT22;7749;49.964;7.890;2022-12-18T14:43:35;-2.60;99.90
15296;DHT22;7749;49.964;7.890;2022-12-18T14:48:54;-2.70;99.90
15296;DHT22;7749;49.964;7.890;2022-12-18T14:51:30;-2.70;99.90
15296;DHT22;7749;49.964;7.890;2022-12-18T14:54:01;-2.70;99.90
15296;DHT22;7749;49.964;7.890;2022-12-18T14:56:34;-2.70;99.90
15296;DHT22;7749;49.964;7.890;2022-12-18T14:59:23;-2.80;99.90
15296;DHT22;7749;49.964;7.890;2022-12-18T15:02:15;-2.90;99.90
15296;DHT22;7749;49.964;7.890;2022-12-18T15:04:46;-2.90;99.90
15296;DHT22;7749;49.964;7.890;2022-12-18T15:10:08;-2.90;99.90
15296;DHT22;7749;49.964;7.890;2022-12-18T15:12:49;-2.90;99.90
15296;DHT22;7749;49.964;7.890;2022-12-18T15:20:49;-2.90;99.90
15296;DHT22;7749;49.964;7.890;2022-12-18T15:23:25;-3.00;99.90
15296;DHT22;7749;49.964;7.890;2022-12-18T15:26:02;-2.90;99.90
15296;DHT22;7749;49.964;7.890;2022-12-18T15:36:23;-2.90;99.90
15296;DHT22;7749;49.964;7.890;2022-12-18T15:38:56;-2.90;99.90
15296;DHT22;7749;49.964;7.890;2022-12-18T15:41:33;-2.90;99.90
15296;DHT22;7749;49.964;7.890;2022-12-18T15:44:03;-2.90;99.90
15296;DHT22;7749;49.964;7.890;2022-12-18T15:46:44;-2.90;99.90
15296;DHT22;7749;49.964;7.890;2022-12-18T15:49:11;-2.90;99.90
15296;DHT22;7749;49.964;7.890;2022-12-18T15:51:39;-2.90;99.90
15296;DHT22;7749;49.964;7.890;2022-12-18T15:54:11;-3.00;99.90
15296;DHT22;7749;49.964;7.890;2022-12-18T15:56:43;-3.00;99.90
15296;DHT22;7749;49.964;7.890;2022-12-18T15:59:29;-3.00;99.90
15296;DHT22;7749;49.964;7.890;2022-12-18T16:01:57;-3.10;99.90
15296;DHT22;7749;49.964;7.890;2022-12-18T16:04:25;-3.10;99.90
15296;DHT22;7749;49.964;7.890;2022-12-18T16:06:53;-3.00;99.90
15296;DHT22;7749;49.964;7.890;2022-12-18T16:09:43;-3.00;99.90
15296;DHT22;7749;49.964;7.890;2022-12-18T16:12:17;-3.10;99.90
15296;DHT22;7749;49.964;7.890;2022-12-18T16:14:52;-3.00;99.90
15296;DHT22;7749;49.964;7.890;2022-12-18T16:17:20;-3.00;99.90
15296;DHT22;7749;49.964;7.890;2022-12-18T16:19:48;-3.00;99.90
15296;DHT22;7749;49.964;7.890;2022-12-18T16:22:22;-3.10;99.90
15296;DHT22;7749;49.964;7.890;2022-12-18T16:24:51;-3.10;99.90
15296;DHT22;7749;49.964;7.890;2022-12-18T16:27:19;-3.10;99.90
15296;DHT22;7749;49.964;7.890;2022-12-18T16:29:47;-3.10;99.90
15296;DHT22;7749;49.964;7.890;2022-12-18T16:32:19;-3.10;99.90
15296;DHT22;7749;49.964;7.890;2022-12-18T16:34:47;-3.10;99.90
15296;DHT22;7749;49.964;7.890;2022-12-18T16:37:16;-3.10;99.90
15296;DHT22;7749;49.964;7.890;2022-12-18T16:39:43;-3.10;99.90
15296;DHT22;7749;49.964;7.890;2022-12-18T16:42:17;-3.00;99.90
15296;DHT22;7749;49.964;7.890;2022-12-18T16:44:48;-3.00;99.90
15296;DHT22;7749;49.964;7.890;2022-12-18T16:47:19;-3.10;99.90
15296;DHT22;7749;49.964;7.890;2022-12-18T16:49:47;-3.10;99.90
15296;DHT22;7749;49.964;7.890;2022-12-18T16:52:19;-3.10;99.90
15296;DHT22;7749;49.964;7.890;2022-12-18T16:54:57;-3.00;99.90
15296;DHT22;7749;49.964;7.890;2022-12-18T16:57:25;-3.00;99.90
15296;DHT22;7749;49.964;7.890;2022-12-18T16:59:53;-2.90;99.90
15296;DHT22;7749;49.964;7.890;2022-12-18T17:02:22;-3.00;99.90
15296;DHT22;7749;49.964;7.890;2022-12-18T17:04:57;-3.00;99.90
15296;DHT22;7749;49.964;7.890;2022-12-18T17:07:26;-3.00;99.90
15296;DHT22;7749;49.964;7.890;2022-12-18T17:09:54;-3.00;99.90
15296;DHT22;7749;49.964;7.890;2022-12-18T17:12:22;-3.00;99.90
15296;DHT22;7749;49.964;7.890;2022-12-18T17:14:50;-2.90;99.90
15296;DHT22;7749;49.964;7.890;2022-12-18T17:17:17;-2.90;99.90
15296;DHT22;7749;49.964;7.890;2022-12-18T17:19:50;-2.90;99.90
15296;DHT22;7749;49.964;7.890;2022-12-18T17:22:18;-2.90;99.90
15296;DHT22;7749;49.964;7.890;2022-12-18T17:24:46;-2.80;99.90
15296;DHT22;7749;49.964;7.890;2022-12-18T17:27:14;-2.80;99.90
15296;DHT22;7749;49.964;7.890;2022-12-18T17:29:42;-2.80;99.90
15296;DHT22;7749;49.964;7.890;2022-12-18T17:32:16;-2.80;99.90
15296;DHT22;7749;49.964;7.890;2022-12-18T17:34:44;-2.70;99.90
15296;DHT22;7749;49.964;7.890;2022-12-18T17:37:12;-2.70;99.90
15296;DHT22;7749;49.964;7.890;2022-12-18T17:39:40;-2.70;99.90
15296;DHT22;7749;49.964;7.890;2022-12-18T17:42:08;-2.70;99.90
15296;DHT22;7749;49.964;7.890;2022-12-18T17:44:42;-2.60;99.90
15296;DHT22;7749;49.964;7.890;2022-12-18T17:47:12;-2.60;99.90
15296;DHT22;7749;49.964;7.890;2022-12-18T17:49:40;-2.60;99.90
15296;DHT22;7749;49.964;7.890;2022-12-18T17:52:07;-2.60;99.90
15296;DHT22;7749;49.964;7.890;2022-12-18T17:54:35;-2.60;99.90
15296;DHT22;7749;49.964;7.890;2022-12-18T17:57:06;-2.60;99.90
15296;DHT22;7749;49.964;7.890;2022-12-18T17:59:34;-2.60;99.90
15296;DHT22;7749;49.964;7.890;2022-12-18T18:02:01;-2.50;99.90
15296;DHT22;7749;49.964;7.890;2022-12-18T18:04:29;-2.60;99.90
15296;DHT22;7749;49.964;7.890;2022-12-18T18:06:57;-2.60;99.90
15296;DHT22;7749;49.964;7.890;2022-12-18T18:09:24;-2.50;99.90
15296;DHT22;7749;49.964;7.890;2022-12-18T18:11:52;-2.50;99.90
15296;DHT22;7749;49.964;7.890;2022-12-18T18:14:42;-2.50;99.90
15296;DHT22;7749;49.964;7.890;2022-12-18T18:17:12;-2.50;99.90
15296;DHT22;7749;49.964;7.890;2022-12-18T18:19:39;-2.50;99.90
15296;DHT22;7749;49.964;7.890;2022-12-18T18:22:09;-2.50;99.90